KHUL/HUL METAR and TAF weather

Enter ICAO airport designator
Station Type Date Time Source
KHUL METAR 2019/02/16 03:06 UTC NOAA

KHUL 160306Z AUTO 14008G17KT 6SM -RA BR OVC009 01/01 A2956 RMK AO2 P0001 T00110006


Station Type Date Time Source
KHUL Decoded METAR 2019/02/16 03:06 UTC NOAA

HOULTON INT'L AIRPORT, ME, United States (KHUL) 46-07N 067-48W 150M
Feb 15, 2019 - 10:06 PM EST / 2019.02.16 0306 UTC
Wind: from the SE (140 degrees) at 9 MPH (8 KT) gusting to 20 MPH (17 KT):0
Visibility: 6 mile(s):0
Sky conditions: overcast
Weather: light rain; mist
Precipitation last hour: 0.01 inches
Temperature: 34.0 F (1.1 C)
Windchill: 26 F (-3 C):1
Dew Point: 33.1 F (0.6 C)
Relative Humidity: 96%
Pressure (altimeter): 29.56 in. Hg (1001 hPa)
ob: KHUL 160306Z AUTO 14008G17KT 6SM -RA BR OVC009 01/01 A2956 RMK AO2 P0001 T00110006
cycle: 3

Station Type Date Time Source
KHUL TAF 2019/02/15 18:40 UTC NOAA

TAF KHUL 151738Z 1518/1618 14010G18KT 1 1/2SM -SN BR OVC015
TEMPO 1518/1522 3/4SM -SN BR OVC010
FM152200 16012G22KT 3/4SM -SN BR OVC008
FM160100 16012G22KT 2SM -SNRA BR OVC008
FM160400 18010G18KT 2SM -RA BR OVC008
FM160800 25010KT P6SM VCSH OVC015
FM161200 26012KT P6SM SCT025 BKN035


Example: see airport list